Huvudsida
METAR-TAF:

METAR-TAF

Flygplatser :

Ohrid-Sankt Paulus flygplats

Ohrid, Makedonien

latitud: 41-07N, longitud: 020-48E, höjd: 760 m

Aktuellt väderrapport

Denna rapport gjordes för 11 timmar och 2 minuter sedan, klockan 14:00 UTC
Vind 4 kt från ost/sydost
Temperatur 21°C
Fuktighet 35%
Tryck 1016 hPa
Sikt 10 km eller mer
Få moln på en höjd av 4000 ft

METAR: LWOH 181400Z 12004KT 9999 FEW040 21/05 Q1016

Tid: 03:02 (01:02 UTC)

Väderprognos

Denna rapport gjordes för 1 timme och 32 minuter sedan, klockan 23:30 UTC
Prognos gäller från 19 kl. 00 UTC till 19 kl. 24 UTC
Vind 2 kt varierande vindriktning
Sikt 10 km eller mer
Få moln på en höjd av 4000 ft

TAF: LWOH 182330Z 1900/1924 VRB02KT 9999 FEW040

Aktuella väderrapporter och prognoser från 4000 flygplatser (METAR- och TAF-rapporter).

De tillgängliga stationerna syns som gula och röda prickar på kartan.

För musen över prickarna för att se namnen på stationerna.

Klicka sedan för att få väderrapporter och prognoser.

För att ändra kartan: Klicka på de gröna knapparna med ett svart kors på för att zooma in; den gröna knappen med ett streck på för att zooma ut; eller på de gröna pilarna för angränsande kartor.


METAR-TAF: